Аэропорт
Угольный (UHMA)

 UHMA / DYR
ЗЦ Хабаровск
Магадан (UHMM)
Магадан (UHMM)
 64.73490, 177.74100  / 194 ft

 UHMA 240400Z 11014G19MPS 080V140 4100 -SNRA BR SCT017 BKN028 OVC040 00/M00 Q0983 R01/////// NOSIG RMK END R01/11018MPS QFE733/0978
 UHMA 231357Z 2315/2415 10009G14MPS 2000 SN BR BKN004 BKN015 TEMPO 2315/2322 12013G18MPS 0500 +SHSN FZDZ FZFG VV002 FM232200 11015G20MPS 0800 +SN VV003 TEMPO 2322/2412 13020G25MPS 0200 +SHSNRA FG VV002 TEMPO 2412/2415 17013G18MPS
UHMA_AIP_0217
показать схемы
Название сценария Тип сценария Flight Simulator 9 Flight Simulator X Prepar3D v2 Prepar3D v3 Prepar3D v4 xPlane
uhma-scenery-fs9-1003 бесплатный
uhma-scenery-fsx-1308 бесплатный


2019 © VATRUS division (Privacy Policy)